KCDC/CDC METAR and TAF weather

Enter ICAO airport designator
Station Type Date Time Source
KCDC METAR 2021/02/27 20:53 UTC NOAA

KCDC 272053Z AUTO 10SM SCT065 OVC085 01/M19 A2992 RMK AO2 PK WND 29031/2040 SLP137 T00111194 58007


Station Type Date Time Source
KCDC Decoded METAR 2021/02/27 20:53 UTC NOAA

CEDAR CITY MUN AIRPORT, UT, United States (KCDC) 37-42N 113-06W 1714M
Feb 27, 2021 - 03:53 PM EST / 2021.02.27 2053 UTC
Visibility: 10 mile(s):0
Sky conditions: overcast
Temperature: 34.0 F (1.1 C)
Dew Point: -2.9 F (-19.4 C)
Relative Humidity: 19%
Pressure (altimeter): 29.92 in. Hg (1013 hPa)
Pressure tendency: 0.02 inches (0.7 hPa) lower than three hours ago
ob: KCDC 272053Z AUTO 10SM SCT065 OVC085 01/M19 A2992 RMK AO2 PK WND 29031/2040 SLP137 T00111194 58007
cycle: 21

Station Type Date Time Source
KCDC TAF 2021/02/27 21:52 UTC NOAA

TAF
AMD KCDC 272050Z 2721/2818 32015G25KT P6SM SCT040 BKN080
FM280300 VRB04KT P6SM SCT080 SCT120

Example: see airport list